Time;durP1;ratioP1;P1;durP2;ratioP2;P2;SDS_P1;SDS_P2;PMS_P1;PMS_P2;Temp;Humidity;BMP_temperature;BMP_pressure;BME280_temperature;BME280_humidity;BME280_pressure;Samples;Min_cycle;Max_cycle;Signal;HPM_P1;HPM_P2
2022/10/30 00:00:04;;;;;;;11.80;6.30;;;15.40;99.90;;;;;;5094310;28;20095;-79
2022/10/30 00:02:30;;;;;;;13.95;6.45;;;15.40;99.90;;;;;;5077610;28;20070;-80
2022/10/30 00:04:55;;;;;;;12.15;6.30;;;15.40;99.90;;;;;;5076467;28;20653;-80
2022/10/30 00:07:21;;;;;;;13.40;6.05;;;15.50;99.90;;;;;;5094977;28;20032;-79
2022/10/30 00:09:47;;;;;;;12.75;5.80;;;15.50;99.90;;;;;;5094379;28;20020;-80
2022/10/30 00:12:12;;;;;;;15.82;6.25;;;15.50;99.90;;;;;;5077191;28;20454;-80
2022/10/30 00:14:38;;;;;;;13.95;6.22;;;15.50;99.90;;;;;;5076410;28;20024;-76
2022/10/30 00:17:03;;;;;;;12.90;6.00;;;15.50;99.90;;;;;;5094605;28;20362;-80
2022/10/30 00:19:29;;;;;;;14.40;6.45;;;15.50;99.90;;;;;;5076584;28;20020;-80
2022/10/30 00:21:56;;;;;;;12.43;5.47;;;15.50;99.90;;;;;;5075685;28;20031;-80
2022/10/30 00:24:22;;;;;;;11.30;5.80;;;15.50;99.90;;;;;;5076637;28;20043;-79
2022/10/30 00:26:48;;;;;;;14.43;6.47;;;15.50;99.90;;;;;;5075780;28;20028;-79
2022/10/30 00:29:14;;;;;;;17.95;6.95;;;15.50;99.90;;;;;;5075863;28;20052;-79
2022/10/30 00:31:40;;;;;;;15.18;6.93;;;15.60;99.90;;;;;;5075696;28;20028;-78
2022/10/30 00:34:06;;;;;;;13.45;6.82;;;15.50;99.90;;;;;;5076420;28;20074;-80
2022/10/30 00:36:31;;;;;;;17.58;6.60;;;15.50;99.90;;;;;;5076254;28;20504;-79
2022/10/30 00:38:57;;;;;;;13.80;6.28;;;15.50;99.90;;;;;;5075587;28;20615;-80
2022/10/30 00:41:24;;;;;;;13.45;6.55;;;15.50;99.90;;;;;;5075792;28;20021;-78
2022/10/30 00:43:50;;;;;;;15.63;6.97;;;15.40;99.90;;;;;;5075254;28;20059;-79
2022/10/30 00:46:22;;;;;;;14.43;7.00;;;15.50;99.90;;;;;;5094145;28;20158;-78
2022/10/30 00:49:08;;;;;;;16.77;7.32;;;15.40;99.90;;;;;;5075208;28;20021;-79
2022/10/30 00:51:37;;;;;;;17.38;7.53;;;15.40;99.90;;;;;;5093888;28;20031;-79
2022/10/30 00:54:05;;;;;;;14.45;6.97;;;15.40;99.90;;;;;;5075439;28;20123;-78
2022/10/30 00:56:31;;;;;;;14.75;8.27;;;15.30;99.90;;;;;;5093768;28;20377;-79
2022/10/30 00:59:03;;;;;;;16.77;8.00;;;15.30;99.90;;;;;;5092658;28;20028;-79
2022/10/30 01:01:34;;;;;;;14.52;7.78;;;15.30;99.90;;;;;;5075817;28;20029;-79
2022/10/30 01:04:02;;;;;;;16.17;7.45;;;15.30;99.90;;;;;;5074826;28;20618;-79
2022/10/30 01:06:29;;;;;;;16.60;7.45;;;15.30;99.90;;;;;;5076030;28;20122;-79
2022/10/30 01:08:55;;;;;;;12.45;6.85;;;15.30;99.90;;;;;;5074993;28;20089;-79
2022/10/30 01:11:21;;;;;;;16.35;6.45;;;15.40;99.90;;;;;;5075587;28;20027;-80
2022/10/30 01:13:49;;;;;;;17.30;6.68;;;15.40;99.90;;;;;;5093038;28;20119;-79
2022/10/30 01:16:36;;;;;;;17.23;6.45;;;15.30;99.90;;;;;;5075692;28;20457;-80
2022/10/30 01:19:32;;;;;;;14.82;6.93;;;15.40;99.90;;;;;;5092938;28;20127;-79
2022/10/30 01:22:09;;;;;;;16.90;6.65;;;15.30;99.90;;;;;;5092705;28;20024;-80
2022/10/30 01:24:53;;;;;;;14.90;6.43;;;15.30;99.90;;;;;;5093682;28;20115;-80
2022/10/30 01:27:34;;;;;;;9.90;5.80;;;15.30;99.90;;;;;;5076008;28;20027;-80
2022/10/30 01:30:32;;;;;;;13.73;6.22;;;15.30;99.90;;;;;;5074716;28;20040;-80
2022/10/30 01:33:15;;;;;;;16.25;5.88;;;15.30;99.90;;;;;;5074744;28;20028;-79
2022/10/30 01:35:53;;;;;;;12.80;6.13;;;15.30;99.90;;;;;;5074895;28;20032;-76
2022/10/30 01:38:27;;;;;;;15.77;5.40;;;15.30;99.90;;;;;;5093311;28;20070;-79
2022/10/30 01:40:53;;;;;;;13.18;4.70;;;15.30;99.90;;;;;;5074600;28;20028;-79
2022/10/30 01:43:19;;;;;;;9.43;5.38;;;15.30;99.90;;;;;;5075283;28;20141;-79
2022/10/30 01:46:22;;;;;;;13.15;5.88;;;15.20;99.90;;;;;;5074696;28;20032;-78
2022/10/30 01:49:23;;;;;;;9.27;4.97;;;15.20;99.90;;;;;;5074316;28;20021;-79
2022/10/30 01:52:05;;;;;;;14.68;5.22;;;15.20;99.90;;;;;;5006957;28;20040;-79
2022/10/30 01:54:57;;;;;;;20.10;5.13;;;15.10;99.90;;;;;;5075136;28;20535;-79
2022/10/30 01:57:37;;;;;;;7.88;4.63;;;15.00;99.90;;;;;;5075145;28;20089;-79
2022/10/30 02:00:09;;;;;;;9.25;5.20;;;15.00;99.90;;;;;;5092430;28;20567;-79
2022/10/30 02:02:34;;;;;;;;;;;15.00;99.90;;;;;;5093390;28;20032;-79
2022/10/30 02:05:00;;;;;;;13.57;4.85;;;15.00;99.90;;;;;;5073997;28;19911;-79
2022/10/30 02:07:26;;;;;;;12.10;4.95;;;14.90;99.90;;;;;;5093006;28;20085;-79
2022/10/30 02:09:53;;;;;;;13.20;4.70;;;14.90;99.90;;;;;;5074216;28;20024;-79
2022/10/30 02:12:21;;;;;;;10.48;4.65;;;14.90;99.90;;;;;;5092818;28;20181;-79
2022/10/30 02:14:53;;;;;;;13.23;5.50;;;14.70;99.90;;;;;;5074064;28;20028;-77
2022/10/30 02:17:20;;;;;;;13.30;5.03;;;14.70;99.90;;;;;;5092834;28;20027;-79
2022/10/30 02:19:45;;;;;;;11.73;4.47;;;14.70;99.90;;;;;;5074288;28;20063;-75
2022/10/30 02:22:11;;;;;;;13.82;4.78;;;14.70;99.90;;;;;;5075053;28;20492;-79
2022/10/30 02:24:37;;;;;;;12.93;4.65;;;14.70;99.90;;;;;;5096579;28;20067;-79
2022/10/30 02:27:03;;;;;;;12.77;4.95;;;14.70;99.90;;;;;;5078336;28;20036;-79
2022/10/30 02:29:28;;;;;;;9.45;4.63;;;14.70;99.90;;;;;;5069141;28;20558;-79
2022/10/30 02:31:54;;;;;;;12.95;5.32;;;14.60;99.90;;;;;;5057835;28;20036;-78
2022/10/30 02:34:20;;;;;;;16.45;5.13;;;14.60;99.90;;;;;;5076300;28;20111;-79
2022/10/30 02:36:45;;;;;;;9.70;4.72;;;14.60;99.90;;;;;;5075567;28;20409;-75
2022/10/30 02:39:11;;;;;;;11.15;4.72;;;14.50;99.90;;;;;;5058307;28;20137;-79
2022/10/30 02:41:37;;;;;;;13.15;4.75;;;14.40;99.90;;;;;;5076324;28;20017;-79
2022/10/30 02:44:05;;;;;;;11.57;4.88;;;14.40;99.90;;;;;;5075526;28;20047;-79
2022/10/30 02:46:31;;;;;;;15.55;5.70;;;14.40;99.90;;;;;;5058483;28;20025;-79
2022/10/30 02:48:56;;;;;;;10.43;5.10;;;14.40;99.90;;;;;;5075389;28;20075;-79
2022/10/30 02:51:22;;;;;;;10.90;4.90;;;14.40;99.90;;;;;;5058436;28;20424;-79
2022/10/30 02:53:48;;;;;;;10.98;4.55;;;14.40;99.90;;;;;;5057419;28;20056;-75
2022/10/30 02:56:14;;;;;;;13.07;4.90;;;14.30;99.90;;;;;;5076038;28;20034;-79
2022/10/30 02:58:40;;;;;;;12.23;4.53;;;14.20;99.90;;;;;;5075981;28;20066;-79
2022/10/30 03:01:10;;;;;;;12.20;5.25;;;14.10;99.90;;;;;;5057176;28;20059;-79
2022/10/30 03:03:36;;;;;;;15.05;5.55;;;14.10;99.90;;;;;;5075568;28;20386;-79
2022/10/30 03:06:07;;;;;;;13.20;4.75;;;14.10;99.90;;;;;;5056978;28;20544;-79
2022/10/30 03:08:33;;;;;;;10.57;5.13;;;14.10;99.90;;;;;;5057884;28;20115;-79
2022/10/30 03:11:11;;;;;;;15.38;5.18;;;14.10;99.90;;;;;;5057029;28;20028;-78
2022/10/30 03:13:39;;;;;;;15.07;5.07;;;14.20;99.90;;;;;;5057925;28;20052;-79
2022/10/30 03:16:17;;;;;;;8.95;4.45;;;14.10;99.90;;;;;;5056828;28;20775;-79
2022/10/30 03:18:43;;;;;;;12.32;4.57;;;14.10;99.90;;;;;;5075520;28;20029;-79
2022/10/30 03:21:12;;;;;;;15.50;4.80;;;14.10;99.90;;;;;;5056628;28;20206;-79
2022/10/30 03:23:37;;;;;;;9.30;4.53;;;14.10;99.90;;;;;;5057451;28;20033;-79
2022/10/30 03:26:03;;;;;;;15.00;4.68;;;14.20;99.90;;;;;;5056720;28;20051;-79
2022/10/30 03:28:30;;;;;;;12.60;4.30;;;14.20;99.90;;;;;;5058185;28;20025;-78
2022/10/30 03:31:01;;;;;;;9.35;3.92;;;14.20;99.90;;;;;;5076697;28;20049;-79
2022/10/30 03:33:27;;;;;;;10.77;4.07;;;14.10;99.90;;;;;;5095465;28;20028;-79
2022/10/30 03:35:53;;;;;;;8.43;4.10;;;14.10;99.90;;;;;;5076537;28;20353;-78
2022/10/30 03:38:19;;;;;;;12.20;4.70;;;14.10;99.90;;;;;;5077298;28;20032;-79
2022/10/30 03:40:44;;;;;;;11.45;4.10;;;14.10;99.90;;;;;;5077285;28;20118;-79
2022/10/30 03:43:10;;;;;;;9.80;4.00;;;14.10;99.90;;;;;;5076299;28;20028;-78
2022/10/30 03:45:36;;;;;;;15.73;4.35;;;14.20;99.90;;;;;;5077114;28;20035;-78
2022/10/30 03:48:03;;;;;;;8.80;3.88;;;14.10;99.90;;;;;;5094135;28;20032;-80
2022/10/30 03:50:29;;;;;;;8.65;4.70;;;14.00;99.90;;;;;;5094970;28;20032;-79
2022/10/30 03:52:55;;;;;;;8.98;3.97;;;14.00;99.90;;;;;;5076542;28;20456;-79
2022/10/30 03:55:21;;;;;;;23.48;9.80;;;14.00;99.90;;;;;;5077212;28;20119;-79
2022/10/30 03:57:47;;;;;;;11.95;4.20;;;14.00;99.90;;;;;;5077123;28;20077;-80
2022/10/30 04:00:13;;;;;;;11.50;4.10;;;13.90;99.90;;;;;;5094186;28;20024;-79
2022/10/30 04:02:43;;;;;;;9.98;4.28;;;13.80;99.90;;;;;;5077470;28;20024;-79
2022/10/30 04:05:08;;;;;;;8.60;3.80;;;13.70;99.90;;;;;;5076463;28;20039;-79
2022/10/30 04:07:34;;;;;;;8.00;3.80;;;13.70;99.90;;;;;;5077218;28;20042;-79
2022/10/30 04:09:59;;;;;;;8.55;4.03;;;13.70;99.90;;;;;;5094042;28;20607;-80
2022/10/30 04:12:25;;;;;;;8.07;3.80;;;13.70;99.90;;;;;;5077213;28;20020;-81
2022/10/30 04:14:50;;;;;;;7.40;3.70;;;13.70;99.90;;;;;;5076886;28;20070;-76
2022/10/30 04:17:16;;;;;;;8.77;4.22;;;13.60;99.90;;;;;;5077177;28;20039;-80
2022/10/30 04:19:41;;;;;;;11.95;4.07;;;13.50;99.90;;;;;;5077163;28;20030;-81
2022/10/30 04:22:07;;;;;;;11.60;4.10;;;13.40;99.90;;;;;;5076272;28;20067;-80
2022/10/30 04:24:33;;;;;;;9.23;3.75;;;13.40;99.90;;;;;;5076924;28;20046;-80
2022/10/30 04:26:58;;;;;;;7.72;3.65;;;13.40;99.90;;;;;;5094318;28;20020;-80
2022/10/30 04:29:24;;;;;;;9.98;3.80;;;13.30;99.90;;;;;;5094556;28;20473;-81
2022/10/30 04:31:49;;;;;;;11.77;3.70;;;13.30;99.90;;;;;;5076772;28;20024;-77
2022/10/30 04:34:15;;;;;;;7.97;4.13;;;13.40;99.90;;;;;;5076178;28;20056;-80
2022/10/30 04:36:40;;;;;;;8.40;3.55;;;13.30;99.90;;;;;;5076359;28;20078;-79
2022/10/30 04:39:06;;;;;;;8.38;3.65;;;13.40;99.90;;;;;;5075593;28;20035;-80
2022/10/30 04:41:32;;;;;;;10.43;3.65;;;13.30;99.90;;;;;;5076731;28;20058;-80
2022/10/30 04:43:57;;;;;;;8.50;3.70;;;13.40;99.90;;;;;;5075954;28;20036;-80
2022/10/30 04:46:23;;;;;;;10.38;3.50;;;13.40;99.90;;;;;;5093749;28;20027;-80
2022/10/30 04:48:48;;;;;;;8.15;3.80;;;13.40;99.90;;;;;;5076778;28;20028;-80
2022/10/30 04:51:14;;;;;;;8.38;4.10;;;13.40;99.90;;;;;;5075617;28;20859;-79
2022/10/30 04:53:41;;;;;;;9.50;3.42;;;13.20;99.90;;;;;;5076233;28;20031;-79
2022/10/30 04:56:06;;;;;;;8.90;4.00;;;13.20;99.90;;;;;;5075686;28;20059;-79
2022/10/30 04:58:32;;;;;;;7.95;3.47;;;13.20;99.90;;;;;;5076262;28;20104;-79
2022/10/30 05:01:02;;;;;;;9.40;3.67;;;13.20;99.90;;;;;;5075392;28;20086;-78
2022/10/30 05:03:27;;;;;;;7.90;3.47;;;13.20;99.90;;;;;;5093773;28;20473;-79
2022/10/30 05:05:58;;;;;;;10.63;3.40;;;13.10;99.90;;;;;;5075474;28;20024;-76
2022/10/30 05:08:23;;;;;;;11.90;3.75;;;13.00;99.90;;;;;;5093976;28;20032;-79
2022/10/30 05:10:49;;;;;;;14.13;3.55;;;13.10;99.90;;;;;;5093791;28;20469;-78
2022/10/30 05:13:15;;;;;;;8.30;3.50;;;13.10;99.90;;;;;;5093097;28;20019;-78
2022/10/30 05:15:40;;;;;;;9.00;3.65;;;13.10;99.90;;;;;;5080426;28;20354;-79
2022/10/30 05:18:06;;;;;;;7.32;3.10;;;13.10;99.90;;;;;;5075078;28;20028;-78
2022/10/30 05:20:31;;;;;;;12.23;3.67;;;13.10;99.90;;;;;;5075632;28;20118;-78
2022/10/30 05:22:58;;;;;;;11.32;3.30;;;13.10;99.90;;;;;;5074991;28;20392;-76
2022/10/30 05:25:24;;;;;;;6.43;3.10;;;13.10;99.90;;;;;;5078088;28;20032;-79
2022/10/30 05:27:56;;;;;;;7.43;3.53;;;13.00;99.90;;;;;;5095965;28;20043;-79
2022/10/30 05:30:21;;;;;;;8.57;3.55;;;12.90;99.90;;;;;;5091987;28;20131;-78
2022/10/30 05:32:47;;;;;;;6.38;3.08;;;13.00;99.90;;;;;;5093320;28;20112;-79
2022/10/30 05:35:12;;;;;;;10.15;3.70;;;12.90;99.90;;;;;;5091297;28;20044;-79
2022/10/30 05:37:38;;;;;;;8.00;2.97;;;12.90;99.90;;;;;;5092421;28;20455;-79
2022/10/30 05:40:04;;;;;;;11.73;3.08;;;12.90;99.90;;;;;;5091625;28;20035;-78
2022/10/30 05:42:30;;;;;;;7.93;2.97;;;12.90;99.90;;;;;;5092395;28;20464;-79
2022/10/30 05:44:55;;;;;;;6.78;3.25;;;12.80;99.90;;;;;;5092185;28;20043;-75
2022/10/30 05:47:21;;;;;;;10.18;3.17;;;12.80;99.90;;;;;;5091621;28;20028;-79
2022/10/30 05:49:46;;;;;;;7.68;3.55;;;12.80;99.90;;;;;;5091901;28;20031;-78
2022/10/30 05:52:12;;;;;;;11.80;3.53;;;12.80;99.90;;;;;;5092380;28;20024;-79
2022/10/30 05:54:38;;;;;;;8.85;3.17;;;12.70;99.90;;;;;;5092523;28;20028;-79
2022/10/30 05:57:03;;;;;;;8.82;3.05;;;12.80;99.90;;;;;;5076048;28;20109;-77
2022/10/30 05:59:29;;;;;;;9.65;3.20;;;12.70;99.90;;;;;;5074740;28;20111;-78
2022/10/30 06:01:55;;;;;;;13.90;3.40;;;12.60;99.90;;;;;;5085686;28;20032;-74
2022/10/30 06:04:21;;;;;;;11.07;3.38;;;12.60;99.90;;;;;;5071367;28;20032;-75
2022/10/30 06:06:46;;;;;;;11.05;2.60;;;12.60;99.90;;;;;;5085578;28;20028;-77
2022/10/30 06:09:12;;;;;;;8.23;2.97;;;12.60;99.90;;;;;;5072425;28;20444;-78
2022/10/30 06:11:37;;;;;;;9.02;2.88;;;12.60;99.90;;;;;;5075116;28;20027;-79
2022/10/30 06:14:03;;;;;;;8.00;2.70;;;12.50;99.90;;;;;;5090883;28;20457;-80
2022/10/30 06:16:29;;;;;;;10.13;2.88;;;12.50;99.90;;;;;;5081070;28;20024;-81
2022/10/30 06:18:54;;;;;;;9.48;3.25;;;12.50;99.90;;;;;;5085278;28;20036;-76
2022/10/30 06:21:20;;;;;;;6.40;2.50;;;12.30;99.90;;;;;;5075674;28;20067;-79
2022/10/30 06:23:47;;;;;;;6.80;2.67;;;12.20;99.90;;;;;;5087642;28;20389;-79
2022/10/30 06:26:13;;;;;;;8.27;2.83;;;12.20;99.90;;;;;;5070328;28;20099;-79
2022/10/30 06:28:38;;;;;;;7.15;2.72;;;12.30;99.90;;;;;;5085388;28;20645;-78
2022/10/30 06:31:05;;;;;;;6.50;2.92;;;12.30;99.90;;;;;;5094305;28;20023;-78
2022/10/30 06:33:30;;;;;;;5.72;2.78;;;12.30;99.90;;;;;;5109864;28;20022;-78
2022/10/30 06:35:56;;;;;;;9.93;3.25;;;12.30;99.90;;;;;;5080350;28;20380;-76
2022/10/30 06:38:21;;;;;;;6.22;3.13;;;12.30;99.90;;;;;;5084365;28;20028;-79
2022/10/30 06:40:48;;;;;;;10.15;2.63;;;12.40;99.90;;;;;;5074632;28;20098;-79
2022/10/30 06:43:14;;;;;;;11.75;2.80;;;12.30;99.90;;;;;;5090245;28;20384;-78
2022/10/30 06:45:39;;;;;;;10.45;2.70;;;12.40;99.90;;;;;;5074558;28;20031;-79
2022/10/30 06:48:05;;;;;;;5.35;2.70;;;12.40;99.90;;;;;;5073297;28;20111;-79
2022/10/30 06:50:31;;;;;;;5.97;2.70;;;12.40;99.90;;;;;;5092623;28;20024;-79
2022/10/30 06:52:56;;;;;;;12.98;3.35;;;12.40;99.90;;;;;;5079763;28;20044;-76
2022/10/30 06:55:22;;;;;;;7.20;2.83;;;12.40;99.90;;;;;;5110048;28;20031;-79
2022/10/30 06:57:55;;;;;;;7.65;2.67;;;12.50;99.90;;;;;;5074272;28;20031;-79
2022/10/30 07:00:21;;;;;;;8.63;2.97;;;12.50;99.90;;;;;;5084165;28;20110;-78
2022/10/30 07:03:00;;;;;;;8.23;2.78;;;12.50;99.90;;;;;;5087024;28;20055;-79
2022/10/30 07:05:26;;;;;;;9.10;2.80;;;12.50;99.90;;;;;;5112411;28;20039;-78
2022/10/30 07:07:54;;;;;;;10.18;3.15;;;12.60;99.90;;;;;;5088565;28;20417;-77
2022/10/30 07:10:19;;;;;;;7.05;2.85;;;12.60;99.90;;;;;;5077047;28;20050;-78
2022/10/30 07:12:53;;;;;;;8.48;2.70;;;12.60;99.90;;;;;;5090821;28;20380;-77
2022/10/30 07:15:18;;;;;;;17.83;3.92;;;12.60;99.90;;;;;;5097587;28;20595;-79
2022/10/30 07:17:51;;;;;;;7.70;2.58;;;12.70;99.90;;;;;;5100197;28;20027;-79
2022/10/30 07:20:16;;;;;;;7.05;3.00;;;12.70;99.90;;;;;;5088107;28;20028;-79
2022/10/30 07:22:42;;;;;;;9.65;3.00;;;12.70;99.90;;;;;;5090156;28;20357;-78
2022/10/30 07:25:08;;;;;;;7.30;2.90;;;12.70;99.90;;;;;;5080753;28;20028;-79
2022/10/30 07:27:41;;;;;;;9.40;3.03;;;12.80;99.90;;;;;;5080372;28;20107;-79
2022/10/30 07:30:07;;;;;;;15.05;3.03;;;12.80;99.90;;;;;;5097039;28;20097;-79
2022/10/30 07:32:32;;;;;;;6.97;2.90;;;12.90;99.90;;;;;;5098200;28;20023;-79
2022/10/30 07:34:58;;;;;;;12.55;3.40;;;12.90;99.90;;;;;;5097205;28;20494;-76
2022/10/30 07:37:24;;;;;;;11.32;2.58;;;13.00;99.90;;;;;;5096388;28;20115;-79
2022/10/30 07:39:49;;;;;;;12.50;3.03;;;13.00;99.90;;;;;;5095347;28;20020;-79
2022/10/30 07:42:15;;;;;;;9.50;2.65;;;13.10;99.90;;;;;;5085317;28;20027;-79
2022/10/30 07:44:40;;;;;;;12.23;2.90;;;13.10;99.90;;;;;;5085089;28;20173;-79
2022/10/30 07:47:06;;;;;;;11.45;3.20;;;13.20;99.90;;;;;;5076349;28;20024;-78
2022/10/30 07:49:31;;;;;;;9.77;3.03;;;13.20;99.90;;;;;;5112042;28;20106;-78
2022/10/30 07:51:57;;;;;;;7.43;2.83;;;13.30;99.90;;;;;;5083389;28;20016;-78
2022/10/30 07:54:22;;;;;;;8.93;2.75;;;13.40;99.90;;;;;;5086481;28;20502;-79
2022/10/30 07:56:48;;;;;;;11.02;2.67;;;13.40;99.90;;;;;;5080835;28;20031;-79
2022/10/30 07:59:14;;;;;;;8.20;2.72;;;13.50;99.90;;;;;;5092846;28;20179;-78
2022/10/30 08:01:39;;;;;;;10.10;2.97;;;13.50;99.90;;;;;;5096162;28;20038;-79
2022/10/30 08:04:05;;;;;;;7.35;2.78;;;13.60;99.90;;;;;;5091770;28;20115;-78
2022/10/30 08:06:30;;;;;;;8.15;2.55;;;13.60;99.90;;;;;;5085443;28;20032;-77
2022/10/30 08:08:56;;;;;;;8.95;3.28;;;13.70;99.90;;;;;;5094453;28;20085;-78
2022/10/30 08:11:22;;;;;;;5.65;2.80;;;13.70;99.90;;;;;;5093912;28;20571;-78
2022/10/30 08:13:47;;;;;;;10.32;2.95;;;13.80;99.90;;;;;;5109550;28;20024;-77
2022/10/30 08:16:13;;;;;;;10.23;2.83;;;13.80;99.90;;;;;;5084174;28;20042;-79
2022/10/30 08:18:41;;;;;;;12.25;2.83;;;13.80;99.90;;;;;;5096318;28;20066;-78
2022/10/30 08:21:07;;;;;;;8.10;2.72;;;13.90;99.90;;;;;;5092403;28;20024;-78
2022/10/30 08:23:32;;;;;;;8.32;2.63;;;14.00;99.90;;;;;;5096348;28;20030;-80
2022/10/30 08:25:59;;;;;;;7.32;2.80;;;14.00;99.90;;;;;;5091579;28;20153;-79
2022/10/30 08:28:25;;;;;;;9.55;3.83;;;14.00;99.90;;;;;;5113279;28;20058;-79
2022/10/30 08:30:50;;;;;;;9.13;2.92;;;14.10;99.90;;;;;;5113200;28;20722;-78
2022/10/30 08:33:16;;;;;;;9.52;2.70;;;14.20;99.90;;;;;;5095169;28;20024;-78
2022/10/30 08:35:49;;;;;;;8.15;2.80;;;14.20;99.90;;;;;;5077924;28;20032;-78
2022/10/30 08:38:16;;;;;;;8.45;3.33;;;14.30;99.90;;;;;;5113143;28;20499;-78
2022/10/30 08:40:42;;;;;;;11.20;3.58;;;14.50;99.90;;;;;;5096090;28;20031;-78
2022/10/30 08:43:08;;;;;;;11.18;3.65;;;14.50;99.90;;;;;;5095377;28;20028;-79
2022/10/30 08:45:33;;;;;;;11.50;3.53;;;14.50;99.90;;;;;;5095418;28;20035;-78
2022/10/30 08:48:04;;;;;;;11.85;3.35;;;14.60;99.90;;;;;;5095494;28;20031;-76
2022/10/30 08:50:30;;;;;;;12.20;4.03;;;14.60;99.90;;;;;;5113806;28;20019;-78
2022/10/30 08:53:00;;;;;;;10.07;3.60;;;14.60;99.90;;;;;;5114155;28;20030;-78
2022/10/30 08:55:26;;;;;;;15.45;4.00;;;14.70;99.90;;;;;;5094069;28;20039;-78
2022/10/30 08:57:51;;;;;;;15.15;4.30;;;14.70;99.90;;;;;;5086007;28;20020;-77
2022/10/30 09:00:17;;;;;;;14.68;4.78;;;14.80;99.90;;;;;;5094904;28;20016;-79
2022/10/30 09:02:44;;;;;;;11.68;3.90;;;14.90;99.90;;;;;;5095633;28;20581;-79
2022/10/30 09:05:09;;;;;;;10.05;4.07;;;14.90;99.90;;;;;;5094532;28;20031;-77
2022/10/30 09:07:35;;;;;;;11.70;3.85;;;15.00;99.90;;;;;;5110399;28;20381;-78
2022/10/30 09:10:04;;;;;;;10.13;3.50;;;15.10;99.90;;;;;;5075520;28;20436;-76
2022/10/30 09:12:30;;;;;;;9.50;3.53;;;15.20;99.90;;;;;;5093965;28;20100;-79
2022/10/30 09:14:55;;;;;;;10.27;3.50;;;15.20;99.90;;;;;;5093436;28;20055;-78
2022/10/30 09:17:21;;;;;;;11.73;3.95;;;15.30;99.90;;;;;;5076266;28;20040;-78
2022/10/30 09:19:47;;;;;;;11.13;3.85;;;15.30;99.90;;;;;;5096180;28;20035;-79
2022/10/30 09:22:12;;;;;;;11.95;3.78;;;15.40;99.90;;;;;;5086339;28;20028;-78
2022/10/30 09:24:38;;;;;;;13.32;4.13;;;15.50;99.90;;;;;;5087469;28;20460;-79
2022/10/30 09:27:05;;;;;;;7.15;3.50;;;15.60;99.90;;;;;;5090161;28;20102;-75
2022/10/30 09:29:30;;;;;;;8.82;3.60;;;15.70;99.90;;;;;;5113652;28;20050;-78
2022/10/30 09:31:57;;;;;;;12.10;3.40;;;15.70;99.90;;;;;;5095165;28;20023;-78
2022/10/30 09:34:22;;;;;;;11.10;3.45;;;15.70;99.90;;;;;;5094986;28;20307;-85
2022/10/30 09:36:48;;;;;;;9.23;3.45;;;15.80;99.90;;;;;;5082092;28;20473;-78
2022/10/30 09:39:15;;;;;;;9.10;2.97;;;15.90;99.90;;;;;;5092144;28;20130;-80
2022/10/30 09:41:56;;;;;;;10.00;3.75;;;16.10;99.90;;;;;;5085262;28;20118;-80
2022/10/30 09:44:36;;;;;;;11.00;3.40;;;16.30;99.90;;;;;;5090837;28;20028;-80
2022/10/30 09:47:05;;;;;;;10.25;2.65;;;16.40;99.90;;;;;;5113769;28;20027;-80
2022/10/30 09:49:52;;;;;;;9.80;2.95;;;16.60;99.90;;;;;;5111390;28;20028;-81
2022/10/30 09:52:41;;;;;;;8.63;3.35;;;16.70;99.90;;;;;;5087555;28;20024;-81
2022/10/30 09:55:15;;;;;;;14.32;3.15;;;16.90;99.90;;;;;;5074438;28;20031;-85
2022/10/30 09:57:45;;;;;;;14.07;3.63;;;16.90;99.90;;;;;;5075145;28;20024;-86
2022/10/30 10:00:13;;;;;;;6.65;2.67;;;16.90;99.90;;;;;;5093438;28;20545;-82
2022/10/30 10:03:08;;;;;;;11.70;2.80;;;17.00;99.90;;;;;;5091541;28;20038;-82
2022/10/30 10:05:51;;;;;;;11.52;2.90;;;17.00;99.90;;;;;;5086094;28;20039;-82
2022/10/30 10:08:27;;;;;;;12.07;2.55;;;17.20;99.90;;;;;;5094009;28;20043;-86
2022/10/30 10:11:07;;;;;;;7.03;2.92;;;17.20;99.90;;;;;;5088036;28;20019;-85
2022/10/30 10:13:42;;;;;;;8.13;3.05;;;17.20;99.90;;;;;;5095309;28;20019;-83
2022/10/30 10:16:34;;;;;;;76.85;46.83;;;17.10;99.90;;;;;;5104703;28;20028;-85
2022/10/30 10:19:19;;;;;;;39.58;24.95;;;17.20;99.90;;;;;;5080344;28;20024;-81
2022/10/30 10:21:54;;;;;;;31.52;17.95;;;17.30;99.90;;;;;;5098336;28;20486;-80
2022/10/30 10:24:23;;;;;;;15.98;6.60;;;17.30;99.90;;;;;;5078251;28;20098;-82
2022/10/30 10:26:52;;;;;;;9.07;4.43;;;17.40;99.90;;;;;;5108521;28;20026;-83
2022/10/30 10:29:41;;;;;;;7.78;2.88;;;17.50;99.90;;;;;;5112527;28;20047;-83
2022/10/30 10:32:25;;;;;;;14.13;3.38;;;17.50;99.90;;;;;;5078262;28;20024;-82
2022/10/30 10:35:14;;;;;;;8.90;3.60;;;17.50;99.90;;;;;;5089036;28;20015;-81
2022/10/30 10:37:59;;;;;;;10.02;3.33;;;17.70;99.90;;;;;;5083833;28;20225;-80
2022/10/30 10:40:38;;;;;;;8.18;2.75;;;17.80;99.90;;;;;;5084960;28;20163;-86
2022/10/30 10:43:06;;;;;;;8.77;2.88;;;17.90;99.90;;;;;;5085986;28;20028;-80
2022/10/30 10:45:41;;;;;;;6.55;2.42;;;18.10;99.90;;;;;;5089437;28;20039;-83
2022/10/30 10:48:16;;;;;;;8.13;2.40;;;18.10;99.90;;;;;;5088058;28;20028;-82
2022/10/30 10:51:11;;;;;;;11.07;2.80;;;18.20;99.90;;;;;;5086746;28;20015;-83
2022/10/30 10:53:53;;;;;;;9.85;2.92;;;18.30;99.90;;;;;;5088609;28;20035;-79
2022/10/30 10:56:26;;;;;;;12.20;3.53;;;18.40;99.90;;;;;;5087482;28;20479;-81
2022/10/30 10:58:56;;;;;;;9.13;2.67;;;18.50;99.90;;;;;;5089779;28;20047;-81
2022/10/30 11:01:41;;;;;;;8.50;2.67;;;18.50;99.90;;;;;;5085888;28;20484;-79
2022/10/30 11:04:30;;;;;;;10.85;3.03;;;18.50;99.90;;;;;;5088022;28;20078;-80
2022/10/30 11:06:57;;;;;;;7.55;2.50;;;18.50;99.90;;;;;;5086783;28;20028;-79
2022/10/30 11:09:26;;;;;;;8.77;3.25;;;18.40;99.90;;;;;;5086291;28;20032;-81
2022/10/30 11:11:54;;;;;;;7.82;2.45;;;18.40;99.90;;;;;;5086990;28;20024;-79
2022/10/30 11:14:27;;;;;;;8.35;2.70;;;18.40;99.90;;;;;;5103722;28;20031;-80
2022/10/30 11:17:20;;;;;;;5.85;2.63;;;18.50;99.90;;;;;;5087712;28;20031;-80
2022/10/30 11:19:50;;;;;;;9.18;2.85;;;18.50;99.90;;;;;;5085592;28;20027;-82
2022/10/30 11:22:27;;;;;;;7.00;3.05;;;18.60;99.90;;;;;;5106266;28;20051;-81
2022/10/30 11:24:53;;;;;;;5.20;2.45;;;18.50;99.90;;;;;;5091797;28;20031;-81
2022/10/30 11:27:22;;;;;;;9.57;2.90;;;18.60;99.90;;;;;;5089159;28;20032;-82
2022/10/30 11:30:03;;;;;;;6.25;2.55;;;18.60;99.90;;;;;;5085924;28;20043;-83
2022/10/30 11:32:32;;;;;;;8.05;2.80;;;18.70;99.90;;;;;;5088410;28;20490;-82
2022/10/30 11:35:06;;;;;;;10.40;3.08;;;18.70;99.90;;;;;;5089218;28;20027;-81
2022/10/30 11:37:36;;;;;;;7.25;2.88;;;18.70;99.90;;;;;;5089650;28;20116;-83
2022/10/30 11:40:05;;;;;;;9.20;2.83;;;18.80;99.90;;;;;;5087788;28;20051;-83
2022/10/30 11:42:33;;;;;;;8.02;2.63;;;18.80;99.90;;;;;;5085469;28;20016;-81
2022/10/30 11:44:59;;;;;;;12.00;2.70;;;18.90;99.90;;;;;;5090333;28;20031;-81
2022/10/30 11:47:34;;;;;;;10.32;3.05;;;18.90;99.90;;;;;;5085868;28;20036;-81
2022/10/30 11:50:03;;;;;;;9.48;3.30;;;19.10;99.90;;;;;;5103913;28;20053;-82
2022/10/30 11:52:37;;;;;;;9.00;3.08;;;19.20;99.90;;;;;;5087327;28;20614;-81
2022/10/30 11:55:10;;;;;;;7.18;3.38;;;19.30;99.90;;;;;;5103315;28;20028;-81
2022/10/30 11:57:43;;;;;;;5.80;2.83;;;19.50;99.90;;;;;;5105766;28;20036;-78
2022/10/30 12:00:20;;;;;;;9.25;3.20;;;19.60;99.90;;;;;;5084923;28;20028;-77
2022/10/30 12:02:52;;;;;;;10.00;3.13;;;19.70;99.90;;;;;;5085351;28;20109;-82
2022/10/30 12:05:24;;;;;;;9.77;3.47;;;19.90;99.90;;;;;;5084790;28;20039;-84
2022/10/30 12:07:50;;;;;;;;;;;20.00;99.90;;;;;;5105897;28;20028;-81
2022/10/30 12:10:27;;;;;;;7.30;2.70;;;20.20;99.90;;;;;;5105260;28;19918;-79
2022/10/30 12:12:53;;;;;;;9.13;3.00;;;20.40;99.90;;;;;;5085624;28;20465;-80
2022/10/30 12:15:26;;;;;;;10.55;3.22;;;20.60;99.90;;;;;;5085892;28;20421;-81
2022/10/30 12:18:00;;;;;;;5.45;2.45;;;20.80;99.90;;;;;;5084170;28;20019;-81
2022/10/30 12:20:27;;;;;;;11.77;3.50;;;20.90;99.90;;;;;;5085063;28;20031;-81
2022/10/30 12:22:53;;;;;;;12.32;5.28;;;21.00;99.90;;;;;;5103582;28;20146;-81
2022/10/30 12:25:28;;;;;;;10.20;3.70;;;21.10;99.90;;;;;;5083811;28;20111;-80
2022/10/30 12:28:13;;;;;;;6.95;2.85;;;21.30;99.90;;;;;;5085002;28;20035;-78
2022/10/30 12:30:59;;;;;;;6.47;2.65;;;21.40;99.90;;;;;;5092413;28;20055;-82
2022/10/30 12:33:40;;;;;;;6.07;2.47;;;21.70;99.90;;;;;;5091707;28;20031;-81
2022/10/30 12:36:16;;;;;;;8.55;3.00;;;22.00;99.90;;;;;;5091920;28;20029;-78
2022/10/30 12:38:47;;;;;;;7.78;3.10;;;22.40;99.90;;;;;;5101656;28;20028;-84
2022/10/30 12:41:24;;;;;;;9.10;2.97;;;22.90;99.90;;;;;;5092544;28;20474;-80
2022/10/30 12:44:17;;;;;;;8.27;2.45;;;23.30;99.90;;;;;;5092769;28;20024;-79
2022/10/30 12:46:57;;;;;;;11.10;2.42;;;23.70;99.90;;;;;;5102268;28;20073;-81
2022/10/30 12:49:38;;;;;;;14.60;3.38;;;23.90;99.90;;;;;;5091366;28;20039;-80
2022/10/30 12:52:24;;;;;;;10.87;3.80;;;24.00;99.90;;;;;;5102259;28;20069;-81
2022/10/30 12:55:08;;;;;;;4.70;2.58;;;24.20;99.90;;;;;;5092689;28;20036;-81